Time;durP1;ratioP1;P1;durP2;ratioP2;P2;SDS_P1;SDS_P2;PMS_P1;PMS_P2;Temp;Humidity;BMP_temperature;BMP_pressure;BME280_temperature;BME280_humidity;BME280_pressure;Samples;Min_cycle;Max_cycle;Signal;HPM_P1;HPM_P2
2022/12/14 00:01:26;;;;;;;33.25;15.50;;;-2.90;99.90;;;-144.05;66.26;125687.94;5029890;28;20457;-84
2022/12/14 00:03:54;;;;;;;35.13;15.93;;;-2.90;99.90;;;-144.05;66.11;125687.94;5028711;28;20029;-84
2022/12/14 00:06:28;;;;;;;31.58;15.65;;;-2.90;99.90;;;-144.05;66.08;125687.94;5029173;28;20162;-84
2022/12/14 00:08:59;;;;;;;29.65;14.85;;;-2.90;99.90;;;-144.05;65.90;125687.94;5028049;28;20497;-83
2022/12/14 00:11:27;;;;;;;36.03;16.27;;;-2.90;99.90;;;-144.05;65.92;125687.94;5043141;28;20029;-84
2022/12/14 00:14:01;;;;;;;23.27;13.20;;;-2.90;99.90;;;-144.05;65.90;125687.94;5023648;28;20029;-85
2022/12/14 00:16:31;;;;;;;28.95;14.13;;;-2.90;99.90;;;-144.05;65.73;125687.94;5023831;28;20033;-85
2022/12/14 00:19:00;;;;;;;29.58;14.13;;;-2.90;99.90;;;-144.05;65.71;125687.94;5039680;28;20033;-85
2022/12/14 00:21:28;;;;;;;28.80;14.30;;;-2.90;99.90;;;-144.05;65.82;125687.94;5039672;28;20033;-82
2022/12/14 00:23:57;;;;;;;28.63;13.82;;;-2.90;99.90;;;-144.05;65.77;125687.94;5039442;28;20128;-83
2022/12/14 00:26:30;;;;;;;28.63;13.95;;;-2.90;99.90;;;-144.05;65.37;125687.94;5042226;28;20378;-86
2022/12/14 00:28:57;;;;;;;26.23;12.52;;;-2.80;99.90;;;-144.05;65.48;125687.94;5025228;28;20030;-84
2022/12/14 00:31:25;;;;;;;29.70;13.48;;;-2.90;99.90;;;-144.05;65.17;125687.94;5040411;28;20053;-82
2022/12/14 00:33:51;;;;;;;31.05;13.80;;;-2.90;99.90;;;-144.05;65.23;125687.94;5039051;28;20033;-82
2022/12/14 00:36:19;;;;;;;23.13;12.05;;;-2.80;99.90;;;-144.05;64.57;125687.94;5038220;28;20103;-85
2022/12/14 00:38:45;;;;;;;28.15;13.65;;;-2.80;99.90;;;-144.05;64.42;125687.94;5039406;28;20052;-82
2022/12/14 00:41:11;;;;;;;25.48;12.15;;;-2.80;99.90;;;-144.05;63.84;125687.94;5022287;28;20075;-84
2022/12/14 00:43:38;;;;;;;23.30;11.40;;;-2.80;99.90;;;-144.05;63.43;125687.94;5024001;28;20032;-83
2022/12/14 00:46:05;;;;;;;24.13;13.07;;;-2.70;99.90;;;-144.05;63.47;125687.94;5042510;28;20107;-82
2022/12/14 00:48:32;;;;;;;29.23;13.88;;;-2.60;99.90;;;-144.05;63.38;125687.94;5027206;28;20025;-82
2022/12/14 00:50:57;;;;;;;23.88;11.23;;;-2.70;99.90;;;-144.05;63.86;125687.94;5042776;28;20030;-82
2022/12/14 00:53:24;;;;;;;23.83;12.13;;;-2.70;99.90;;;-144.05;63.92;125687.94;5023442;28;20519;-84
2022/12/14 00:55:51;;;;;;;25.95;12.43;;;-2.70;99.90;;;-144.05;64.21;125687.94;5040666;28;20030;-85
2022/12/14 00:58:24;;;;;;;26.42;12.98;;;-2.80;99.90;;;-144.05;64.09;125687.94;5022195;28;20037;-84
2022/12/14 01:01:05;;;;;;;28.55;12.90;;;-2.80;99.90;;;-144.05;63.86;125687.94;5023518;28;20029;-82
2022/12/14 01:03:32;;;;;;;24.63;11.63;;;-2.80;99.90;;;-144.05;63.70;125687.94;5044077;28;20025;-85
2022/12/14 01:05:58;;;;;;;24.30;11.20;;;-2.80;99.90;;;-144.05;63.30;125687.94;5026603;28;20033;-85
2022/12/14 01:08:24;;;;;;;21.27;11.43;;;-2.80;99.90;;;-144.05;63.37;125687.94;5044269;28;20040;-85
2022/12/14 01:10:52;;;;;;;22.15;10.55;;;-2.80;99.90;;;-144.05;63.01;125687.94;5027436;28;20055;-85
2022/12/14 01:13:17;;;;;;;24.40;11.52;;;-2.80;99.90;;;-144.05;62.82;125687.94;5043230;28;20035;-83
2022/12/14 01:15:43;;;;;;;22.35;12.23;;;-2.70;99.90;;;-144.05;62.35;125687.94;5047691;28;20029;-85
2022/12/14 01:18:09;;;;;;;21.88;11.07;;;-2.70;99.90;;;-144.05;62.32;125687.94;5044089;28;20033;-83
2022/12/14 01:20:35;;;;;;;22.05;10.85;;;-2.70;99.90;;;-144.05;62.62;125687.94;5039452;28;20033;-85
2022/12/14 01:23:01;;;;;;;24.92;11.82;;;-2.80;99.90;;;-144.05;62.57;125687.94;5025175;28;20110;-84
2022/12/14 01:25:27;;;;;;;24.42;12.38;;;-2.80;99.90;;;-144.05;63.05;125687.94;5042998;28;20037;-82
2022/12/14 01:27:53;;;;;;;21.60;11.25;;;-2.80;99.90;;;-144.05;63.34;125687.94;5027413;28;20032;-83
2022/12/14 01:30:19;;;;;;;22.90;10.93;;;-2.90;99.90;;;-144.05;63.38;125687.94;5044005;28;20045;-82
2022/12/14 01:32:46;;;;;;;23.75;10.52;;;-2.90;99.90;;;-144.05;63.96;125687.94;5026064;28;20033;-85
2022/12/14 01:35:12;;;;;;;21.60;11.90;;;-3.00;99.90;;;-144.05;63.80;125687.94;5023310;28;20075;-85
2022/12/14 01:37:38;;;;;;;18.67;10.25;;;-3.00;99.90;;;-144.05;63.82;125687.94;5039553;28;20034;-85
2022/12/14 01:40:05;;;;;;;25.40;11.85;;;-3.00;99.90;;;-144.05;64.04;125687.94;5039534;28;20040;-85
2022/12/14 01:42:35;;;;;;;25.60;10.52;;;-3.10;99.90;;;-144.05;64.23;125687.94;5024433;28;20040;-84
2022/12/14 01:45:03;;;;;;;21.52;11.70;;;-3.10;99.90;;;-144.05;63.88;125687.94;5025953;28;20025;-84
2022/12/14 01:47:43;;;;;;;22.02;11.63;;;-3.20;99.90;;;-144.05;64.02;125687.94;5044765;28;20029;-85
2022/12/14 01:50:33;;;;;;;23.58;10.60;;;-3.20;99.90;;;-144.05;64.42;125687.94;5027950;28;20120;-83
2022/12/14 01:53:10;;;;;;;20.40;9.48;;;-3.30;99.90;;;-144.05;64.38;125687.94;5043990;28;20065;-81
2022/12/14 01:55:43;;;;;;;19.77;9.07;;;-3.30;99.90;;;-144.05;64.59;125687.94;5022967;28;20127;-85
2022/12/14 01:58:24;;;;;;;20.23;9.35;;;-3.30;99.90;;;-144.05;64.22;125687.94;5021227;28;20068;-82
2022/12/14 02:00:58;;;;;;;21.63;9.05;;;-3.30;99.90;;;-144.05;63.89;125687.94;5022800;28;20029;-84
2022/12/14 02:03:40;;;;;;;22.88;10.00;;;-3.30;99.90;;;-144.05;64.01;125687.94;5023935;28;20033;-85
2022/12/14 02:06:21;;;;;;;19.48;9.27;;;-3.20;99.90;;;-144.05;63.52;125687.94;5042535;23;20042;-77
2022/12/14 02:08:52;;;;;;;16.88;8.35;;;-3.20;99.90;;;-144.05;63.60;125687.94;5024766;28;20372;-77
2022/12/14 02:11:41;;;;;;;21.52;8.93;;;-3.20;99.90;;;-144.05;63.46;125687.94;5013966;28;20038;-78
2022/12/14 02:14:07;;;;;;;22.95;9.55;;;-3.20;99.90;;;-144.05;63.45;125687.94;5012590;28;20489;-75
2022/12/14 02:19:12;;;;;;;22.40;9.80;;;-3.30;99.90;;;-144.05;63.60;125687.94;5009948;28;20041;-83
2022/12/14 02:22:31;;;;;;;19.73;9.82;;;-3.30;99.90;;;-144.05;63.98;125687.94;4994064;28;20156;-81
2022/12/14 02:26:00;;;;;;;18.73;8.70;;;-3.30;99.90;;;-144.05;63.58;125687.94;4989867;28;20033;-82
2022/12/14 02:29:03;;;;;;;17.48;7.80;;;-3.40;99.90;;;-144.05;63.91;125687.94;4973608;28;20072;-80
2022/12/14 02:32:26;;;;;;;18.67;8.45;;;-3.40;99.90;;;-144.05;63.83;125687.94;4974914;28;20037;-83
2022/12/14 02:35:16;;;;;;;15.88;8.55;;;-3.50;99.90;;;-144.05;63.97;125687.94;4974775;28;20038;-81
2022/12/14 02:38:20;;;;;;;17.05;8.25;;;-3.50;99.90;;;-144.05;64.38;125687.94;4975206;28;20026;-80
2022/12/14 02:41:37;;;;;;;17.90;8.43;;;-3.60;99.90;;;-144.05;64.61;125687.94;4979561;28;20117;-80
2022/12/14 02:44:30;;;;;;;16.90;8.05;;;-3.70;99.90;;;-144.05;64.57;125687.94;4980129;28;20120;-82
2022/12/14 02:47:05;;;;;;;21.15;9.38;;;-3.70;99.90;;;-144.05;64.67;125687.94;4975444;28;20038;-82
2022/12/14 02:50:16;;;;;;;18.13;8.57;;;-3.80;99.90;;;-144.05;65.23;125687.94;4992565;28;20042;-81
2022/12/14 02:53:22;;;;;;;16.98;8.35;;;-3.80;99.90;;;-144.05;65.10;125687.94;4974753;28;20324;-81
2022/12/14 02:56:05;;;;;;;17.75;8.63;;;-3.90;99.90;;;-144.05;65.45;125687.94;4975355;28;20047;-82
2022/12/14 02:58:49;;;;;;;19.13;8.80;;;-4.00;99.90;;;-144.05;65.50;125687.94;4975235;28;20516;-80
2022/12/14 03:01:22;;;;;;;22.35;9.45;;;-4.00;99.90;;;-144.05;65.82;125687.94;4991606;28;20455;-81
2022/12/14 03:03:48;;;;;;;14.80;8.05;;;-4.00;99.90;;;-144.05;66.09;125687.94;4974892;28;20084;-83
2022/12/14 03:06:26;;;;;;;18.23;8.85;;;-3.90;99.90;;;-144.05;65.88;125687.94;4974378;28;20027;-83
2022/12/14 03:09:07;;;;;;;19.08;8.90;;;-3.90;99.90;;;-144.05;65.68;125687.94;4973991;28;20050;-81
2022/12/14 03:11:55;;;;;;;16.67;9.57;;;-3.90;99.90;;;-144.05;65.80;125687.94;4978920;28;20066;-81
2022/12/14 03:14:45;;;;;;;15.80;8.45;;;-3.80;99.90;;;-144.05;65.82;125687.94;4982625;28;20034;-82
2022/12/14 03:17:23;;;;;;;18.08;9.07;;;-3.80;99.90;;;-144.05;65.75;125687.94;4983894;28;20117;-82
2022/12/14 03:20:17;;;;;;;20.20;9.25;;;-3.80;99.90;;;-144.05;65.67;125687.94;5002083;28;20168;-82
2022/12/14 03:23:01;;;;;;;15.90;8.13;;;-3.80;99.90;;;-144.05;65.46;125687.94;4994049;28;20498;-80
2022/12/14 03:26:06;;;;;;;15.27;7.55;;;-3.70;99.90;;;-144.05;65.40;125687.94;4977705;28;20030;-81
2022/12/14 03:28:50;;;;;;;17.10;7.35;;;-3.70;99.90;;;-144.05;65.35;125687.94;4976421;28;20125;-82
2022/12/14 03:31:43;;;;;;;19.13;7.28;;;-3.60;99.90;;;-144.05;65.44;125687.94;4977954;28;20106;-83
2022/12/14 03:34:16;;;;;;;18.30;8.45;;;-3.60;99.90;;;-144.05;65.34;125687.94;4978091;28;20034;-81
2022/12/14 03:36:58;;;;;;;16.05;7.90;;;-3.50;99.90;;;-144.05;65.06;125687.94;4995662;28;20174;-82
2022/12/14 03:39:38;;;;;;;13.20;6.28;;;-3.50;99.90;;;-144.05;64.71;125687.94;4978009;28;20466;-81
2022/12/14 03:42:24;;;;;;;20.85;8.40;;;-3.40;99.90;;;-144.05;64.21;125687.94;4978045;28;20038;-81
2022/12/14 03:45:25;;;;;;;20.42;8.52;;;-3.40;99.90;;;-144.05;64.72;125687.94;4995846;28;20072;-81
2022/12/14 03:48:14;;;;;;;22.63;8.20;;;-3.40;99.90;;;-144.05;64.45;125687.94;4988630;28;20041;-81
2022/12/14 03:51:05;;;;;;;15.98;7.25;;;-3.40;99.90;;;-144.05;64.59;125687.94;5002488;28;20094;-79
2022/12/14 03:54:00;;;;;;;17.85;7.78;;;-3.40;99.90;;;-144.05;64.94;125687.94;4994155;28;20049;-81
2022/12/14 03:56:53;;;;;;;16.20;7.50;;;-3.40;99.90;;;-144.05;64.68;125687.94;4977925;28;20031;-82
2022/12/14 03:59:36;;;;;;;18.70;7.10;;;-3.40;99.90;;;-144.05;64.33;125687.94;4977230;28;20369;-81
2022/12/14 04:03:18;;;;;;;17.30;7.40;;;-3.50;99.90;;;-144.05;64.68;125687.94;4977466;28;20092;-81
2022/12/14 04:06:04;;;;;;;16.05;7.38;;;-3.50;99.90;;;-144.05;64.81;125687.94;4899707;29;20043;-81
2022/12/14 04:09:15;;;;;;;18.30;7.18;;;-3.50;99.90;;;-144.05;64.81;125687.94;4915443;29;20028;-81
2022/12/14 04:20:48;;;;;;;13.52;7.43;;;-3.40;99.90;;;-144.05;63.91;125687.94;4995003;28;20041;-83
2022/12/14 04:26:21;;;;;;;17.55;6.65;;;-3.30;99.90;;;-144.05;64.08;125687.94;4994162;28;20107;-79
2022/12/14 04:32:07;;;;;;;15.02;5.88;;;-3.30;99.90;;;-144.05;63.62;125687.94;4996167;28;20123;-81
2022/12/14 04:34:37;;;;;;;16.05;6.35;;;-3.30;99.90;;;-144.05;63.35;125687.94;4977554;28;20057;-82
2022/12/14 04:37:15;;;;;;;15.98;6.95;;;-3.30;99.90;;;-144.05;62.94;125687.94;4977543;28;20038;-81
2022/12/14 04:39:55;;;;;;;17.35;6.45;;;-3.30;99.90;;;-144.05;62.98;125687.94;4977565;28;20034;-84
2022/12/14 04:42:35;;;;;;;15.90;7.45;;;-3.20;99.90;;;-144.05;63.15;125687.94;4977971;28;20030;-79
2022/12/14 04:45:26;;;;;;;17.60;7.63;;;-3.20;99.90;;;-144.05;62.94;125687.94;4977837;28;20136;-81
2022/12/14 04:48:32;;;;;;;16.50;6.90;;;-3.10;99.90;;;-144.05;62.29;125687.94;4978229;28;20034;-81
2022/12/14 04:51:24;;;;;;;12.20;5.90;;;-3.10;99.90;;;-144.05;62.09;125687.94;4977309;28;20046;-82
2022/12/14 04:54:03;;;;;;;13.80;6.32;;;-3.10;99.90;;;-144.05;62.33;125687.94;4977705;28;20061;-82
2022/12/14 04:57:09;;;;;;;14.55;6.57;;;-3.10;99.90;;;-144.05;62.29;125687.94;4978116;28;20065;-85
2022/12/14 04:59:36;;;;;;;14.85;6.45;;;-3.10;99.90;;;-144.05;62.48;125687.94;4999971;28;20022;-83
2022/12/14 05:02:23;;;;;;;14.95;7.28;;;-3.20;99.90;;;-144.05;62.69;125687.94;4998643;28;20024;-80
2022/12/14 05:05:22;;;;;;;12.05;6.22;;;-3.20;99.90;;;-144.05;62.64;125687.94;4989272;28;20023;-82
2022/12/14 05:08:39;;;;;;;12.32;6.00;;;-3.20;99.90;;;-144.05;62.42;125687.94;4977189;28;20030;-82
2022/12/14 05:11:24;;;;;;;11.90;5.80;;;-3.20;99.90;;;-144.05;62.84;125687.94;4992872;28;20034;-83
2022/12/14 05:13:50;;;;;;;11.30;6.40;;;-3.30;99.90;;;-144.05;62.75;125687.94;4994574;28;20026;-81
2022/12/14 05:16:22;;;;;;;14.13;6.25;;;-3.30;99.90;;;-144.05;62.89;125687.94;4977000;28;20415;-84
2022/12/14 05:18:49;;;;;;;12.65;6.07;;;-3.30;99.90;;;-144.05;62.45;125687.94;4978035;28;20098;-82
2022/12/14 05:24:03;;;;;;;13.77;6.65;;;-3.30;99.90;;;-144.05;62.65;125687.94;4995254;28;20089;-82
2022/12/14 05:26:31;;;;;;;15.18;7.32;;;-3.30;99.90;;;-144.05;62.64;125687.94;4976695;28;20027;-83
2022/12/14 05:28:57;;;;;;;16.52;8.07;;;-3.30;99.90;;;-144.05;62.39;125687.94;4976035;28;20453;-83
2022/12/14 05:31:24;;;;;;;79.75;29.48;;;-3.30;99.90;;;-144.05;62.24;125687.94;4976895;28;20102;-83
2022/12/14 05:33:50;;;;;;;24.55;9.88;;;-3.20;99.90;;;-144.05;62.52;125687.94;4994515;28;20390;-83
2022/12/14 05:36:16;;;;;;;33.33;13.23;;;-3.30;99.90;;;-144.05;62.46;125687.94;4994173;28;20117;-82
2022/12/14 05:38:42;;;;;;;22.75;9.35;;;-3.30;99.90;;;-144.05;62.64;125687.94;4976861;28;20034;-83
2022/12/14 05:41:08;;;;;;;30.13;13.68;;;-3.30;99.90;;;-144.05;62.62;125687.94;4992786;28;20023;-82
2022/12/14 05:43:34;;;;;;;19.90;9.05;;;-3.30;99.90;;;-144.05;62.48;125687.94;4981934;28;20100;-82
2022/12/14 05:46:03;;;;;;;14.15;6.57;;;-3.30;99.90;;;-144.05;62.72;125687.94;4976720;28;20034;-82
2022/12/14 05:48:30;;;;;;;22.45;10.70;;;-3.30;99.90;;;-144.05;62.12;125687.94;4994399;28;20034;-82
2022/12/14 05:51:12;;;;;;;38.97;17.15;;;-3.30;99.90;;;-144.05;62.04;125687.94;4976876;28;20042;-82
2022/12/14 05:53:39;;;;;;;16.00;7.30;;;-3.30;99.90;;;-144.05;62.21;125687.94;4976886;28;20109;-82
2022/12/14 05:56:09;;;;;;;51.28;20.90;;;-3.30;99.90;;;-144.05;62.05;125687.94;4994675;28;20397;-81
2022/12/14 05:58:36;;;;;;;38.00;16.13;;;-3.20;99.90;;;-144.05;61.85;125687.94;4976854;28;20549;-83
2022/12/14 06:01:06;;;;;;;19.98;8.02;;;-3.20;99.90;;;-144.05;61.64;125687.94;4993898;28;20117;-83
2022/12/14 06:03:33;;;;;;;19.88;8.60;;;-3.20;99.90;;;-144.05;61.84;125687.94;4976873;28;20088;-81
2022/12/14 06:06:10;;;;;;;17.25;8.55;;;-3.20;99.90;;;-144.05;62.16;125687.94;4977342;28;20092;-84
2022/12/14 06:08:42;;;;;;;19.90;8.07;;;-3.20;99.90;;;-144.05;62.35;125687.94;4976615;28;20399;-83
2022/12/14 06:11:20;;;;;;;48.10;20.30;;;-3.30;99.90;;;-144.05;62.67;125687.94;4977575;28;20474;-83
2022/12/14 06:13:48;;;;;;;22.30;10.15;;;-3.30;99.90;;;-144.05;62.83;125687.94;4978878;28;20066;-81
2022/12/14 06:16:17;;;;;;;19.00;9.25;;;-3.30;99.90;;;-144.05;62.65;125687.94;4975297;28;20145;-83
2022/12/14 06:18:49;;;;;;;21.70;9.80;;;-3.30;99.90;;;-144.05;62.82;125687.94;4991164;28;20038;-83
2022/12/14 06:21:18;;;;;;;27.35;11.32;;;-3.40;99.90;;;-144.05;63.13;125687.94;4992645;28;20042;-81
2022/12/14 06:23:45;;;;;;;15.07;8.23;;;-3.30;99.90;;;-144.05;63.20;125687.94;4993606;28;20039;-85
2022/12/14 06:26:13;;;;;;;16.33;7.75;;;-3.30;99.90;;;-144.05;63.28;125687.94;4976907;28;20076;-83
2022/12/14 06:28:40;;;;;;;15.88;7.05;;;-3.40;99.90;;;-144.05;63.48;125687.94;4976377;28;20125;-85
2022/12/14 06:31:12;;;;;;;15.23;7.32;;;-3.40;99.90;;;-144.05;64.00;125687.94;4976404;28;20049;-83
2022/12/14 06:33:38;;;;;;;24.23;11.05;;;-3.40;99.90;;;-144.05;63.89;125687.94;4976095;28;20034;-81
2022/12/14 06:36:04;;;;;;;18.85;8.63;;;-3.50;99.90;;;-144.05;64.17;125687.94;4976014;28;20077;-81
2022/12/14 06:38:30;;;;;;;15.65;7.57;;;-3.50;99.90;;;-144.05;64.43;125687.94;4975398;28;20093;-83
2022/12/14 06:40:56;;;;;;;18.00;8.02;;;-3.50;99.90;;;-144.05;64.38;125687.94;4976438;28;20030;-83
2022/12/14 06:43:25;;;;;;;27.75;11.50;;;-3.50;99.90;;;-144.05;64.59;125687.94;4976773;28;20116;-82
2022/12/14 06:45:50;;;;;;;28.38;9.63;;;-3.50;99.90;;;-144.05;64.70;125687.94;4975945;28;20034;-84
2022/12/14 06:48:16;;;;;;;16.77;8.90;;;-3.50;99.90;;;-144.05;65.03;125687.94;4991146;28;20042;-82
2022/12/14 06:50:42;;;;;;;27.85;8.85;;;-3.50;99.90;;;-144.05;64.89;125687.94;4993651;28;20129;-83
2022/12/14 06:53:12;;;;;;;16.48;8.20;;;-3.60;99.90;;;-144.05;64.80;125687.94;4975931;28;20148;-82
2022/12/14 06:55:38;;;;;;;19.40;7.90;;;-3.60;99.90;;;-144.05;65.06;125687.94;4976290;28;20482;-82
2022/12/14 06:58:04;;;;;;;22.88;9.30;;;-3.60;99.90;;;-144.05;64.95;125687.94;5003542;28;20093;-82
2022/12/14 07:00:30;;;;;;;21.70;9.68;;;-3.50;99.90;;;-144.05;65.17;125687.94;4985670;28;20026;-81
2022/12/14 07:02:56;;;;;;;20.10;8.82;;;-3.60;99.90;;;-144.05;65.19;125687.94;4975956;28;20140;-84
2022/12/14 07:05:22;;;;;;;16.42;8.00;;;-3.50;99.90;;;-144.05;65.15;125687.94;4975723;28;20191;-82
2022/12/14 07:07:48;;;;;;;16.50;8.23;;;-3.50;99.90;;;-144.05;64.91;125687.94;4994740;28;20437;-81
2022/12/14 07:10:14;;;;;;;19.70;8.35;;;-3.40;99.90;;;-144.05;64.92;125687.94;4976292;28;20038;-83
2022/12/14 07:12:40;;;;;;;21.55;8.27;;;-3.40;99.90;;;-144.05;64.87;125687.94;4976261;28;20050;-81
2022/12/14 07:15:06;;;;;;;20.10;8.65;;;-3.40;99.90;;;-144.05;64.91;125687.94;4981534;28;20063;-83
2022/12/14 07:17:36;;;;;;;19.58;7.90;;;-3.40;99.90;;;-144.05;64.80;125687.94;4991467;28;20058;-81
2022/12/14 07:20:05;;;;;;;28.77;9.63;;;-3.40;99.90;;;-144.05;64.38;125687.94;4981692;28;20395;-82
2022/12/14 07:22:33;;;;;;;15.50;7.72;;;-3.40;99.90;;;-144.05;64.32;125687.94;4976702;28;20124;-81
2022/12/14 07:24:58;;;;;;;19.30;8.55;;;-3.40;99.90;;;-144.05;64.06;125687.94;4993871;28;20137;-83
2022/12/14 07:27:24;;;;;;;14.93;8.43;;;-3.30;99.90;;;-144.05;64.02;125687.94;4977798;28;20026;-81
2022/12/14 07:29:51;;;;;;;18.75;8.07;;;-3.30;99.90;;;-144.05;64.18;125687.94;4998210;28;20030;-79
2022/12/14 07:32:17;;;;;;;16.27;7.25;;;-3.30;99.90;;;-144.05;64.33;125687.94;4982893;28;20062;-82
2022/12/14 07:34:42;;;;;;;17.67;7.80;;;-3.30;99.90;;;-144.05;64.12;125687.94;4978237;28;20494;-82
2022/12/14 07:37:08;;;;;;;17.13;7.97;;;-3.30;99.90;;;-144.05;63.87;125687.94;4978826;28;20065;-82
2022/12/14 07:39:34;;;;;;;17.25;8.27;;;-3.30;99.90;;;-144.05;63.60;125687.94;4993722;28;20034;-80
2022/12/14 07:42:00;;;;;;;17.42;7.75;;;-3.30;99.90;;;-144.05;63.87;125687.94;4976423;28;20449;-83
2022/12/14 07:44:26;;;;;;;19.80;8.13;;;-3.30;99.90;;;-144.05;63.45;125687.94;4976495;28;20085;-83
2022/12/14 07:46:52;;;;;;;20.92;8.70;;;-3.30;99.90;;;-144.05;63.65;125687.94;4977090;28;20056;-83
2022/12/14 07:49:19;;;;;;;17.48;7.43;;;-3.20;99.90;;;-144.05;63.60;125687.94;4978631;28;20042;-84
2022/12/14 07:51:45;;;;;;;21.05;9.68;;;-3.20;99.90;;;-144.05;63.40;125687.94;4999238;28;20478;-81
2022/12/14 07:54:13;;;;;;;18.13;8.52;;;-3.20;99.90;;;-144.05;63.47;125687.94;4980560;28;20065;-84
2022/12/14 07:56:42;;;;;;;23.27;8.77;;;-3.20;99.90;;;-144.05;63.35;125687.94;4978010;28;20148;-84
2022/12/14 07:59:15;;;;;;;23.80;10.50;;;-3.20;99.90;;;-144.05;63.26;125687.94;4996460;28;20528;-85
2022/12/14 08:01:42;;;;;;;21.45;10.13;;;-3.10;99.90;;;-144.05;63.52;125687.94;4993767;28;20018;-81
2022/12/14 08:04:18;;;;;;;17.77;9.00;;;-3.00;99.90;;;-144.05;63.56;125687.94;5011829;28;20548;-82
2022/12/14 08:06:47;;;;;;;21.58;9.95;;;-3.10;99.90;;;-144.05;63.47;125687.94;4980419;28;20034;-82
2022/12/14 08:09:16;;;;;;;21.27;9.10;;;-3.00;99.90;;;-144.05;63.55;125687.94;4979335;28;20197;-82
2022/12/14 08:11:42;;;;;;;19.52;9.40;;;-3.10;99.90;;;-144.05;63.15;125687.94;4980047;28;20058;-80
2022/12/14 08:14:17;;;;;;;17.10;8.30;;;-3.00;99.90;;;-144.05;63.48;125687.94;4980162;28;20030;-79
2022/12/14 08:16:47;;;;;;;19.83;10.00;;;-3.00;99.90;;;-144.05;63.43;125687.94;4996569;28;20329;-82
2022/12/14 08:19:13;;;;;;;17.55;8.77;;;-3.00;99.90;;;-144.05;63.19;125687.94;4996967;28;20045;-82
2022/12/14 08:21:40;;;;;;;17.67;8.95;;;-3.00;99.90;;;-144.05;63.42;125687.94;4996471;28;20027;-79
2022/12/14 08:24:10;;;;;;;23.35;10.18;;;-3.00;99.90;;;-144.05;63.23;125687.94;4998343;28;20030;-82
2022/12/14 08:26:37;;;;;;;18.65;8.50;;;-2.90;99.90;;;-144.05;63.02;125687.94;4980454;28;20121;-82
2022/12/14 08:29:05;;;;;;;17.75;9.88;;;-3.00;99.90;;;-144.05;62.96;125687.94;4979500;28;20335;-84
2022/12/14 08:31:32;;;;;;;26.60;9.80;;;-3.00;99.90;;;-144.05;62.61;125687.94;4984712;28;20399;-78
2022/12/14 08:34:00;;;;;;;19.08;9.18;;;-2.90;99.90;;;-144.05;62.54;125687.94;5001455;28;20027;-81
2022/12/14 08:36:33;;;;;;;19.92;8.50;;;-2.90;99.90;;;-144.05;62.40;125687.94;5018561;28;20180;-79
2022/12/14 08:39:07;;;;;;;17.45;8.63;;;-2.80;99.90;;;-144.05;62.43;125687.94;4979035;28;20034;-82
2022/12/14 08:41:33;;;;;;;19.38;8.82;;;-2.80;99.90;;;-144.05;62.72;125687.94;4985707;28;20043;-82
2022/12/14 08:44:02;;;;;;;17.83;9.00;;;-2.70;99.90;;;-144.05;62.64;125687.94;4997662;28;20084;-83
2022/12/14 08:46:32;;;;;;;19.67;9.20;;;-2.70;99.90;;;-144.05;62.55;125687.94;4982585;28;20085;-83
2022/12/14 08:48:59;;;;;;;18.52;8.85;;;-2.60;99.90;;;-144.05;62.16;125687.94;4980034;28;20027;-80
2022/12/14 08:51:27;;;;;;;24.70;8.88;;;-2.60;99.90;;;-144.05;61.96;125687.94;4998729;28;20034;-80
2022/12/14 08:53:55;;;;;;;24.20;10.32;;;-2.50;99.90;;;-144.05;62.33;125687.94;4982223;28;20042;-82
2022/12/14 08:56:26;;;;;;;22.15;10.48;;;-2.50;99.90;;;-144.05;62.31;125687.94;4991067;28;20105;-80
2022/12/14 08:58:52;;;;;;;22.75;8.32;;;-2.50;99.90;;;-144.05;62.34;125687.94;4980549;28;20525;-81
2022/12/14 09:01:25;;;;;;;17.77;8.77;;;-2.50;99.90;;;-144.05;62.37;125687.94;4978926;28;20034;-83
2022/12/14 09:03:51;;;;;;;18.38;8.73;;;-2.40;99.90;;;-144.05;62.65;125687.94;4980196;28;20031;-83
2022/12/14 09:06:27;;;;;;;21.75;10.02;;;-2.30;99.90;;;-144.05;62.63;125687.94;4980623;28;20023;-81
2022/12/14 09:09:05;;;;;;;20.98;9.60;;;-2.40;99.90;;;-144.05;62.96;125687.94;4980975;28;20022;-82
2022/12/14 09:11:31;;;;;;;24.05;9.73;;;-2.40;99.90;;;-144.05;62.91;125687.94;4978810;28;20038;-81
2022/12/14 09:13:57;;;;;;;17.70;9.43;;;-2.30;99.90;;;-144.05;62.99;125687.94;4980750;28;20129;-81
2022/12/14 09:16:25;;;;;;;29.02;10.70;;;-2.30;99.90;;;-144.05;62.53;125687.94;4981925;28;20125;-80
2022/12/14 09:18:51;;;;;;;25.10;11.88;;;-2.30;99.90;;;-144.05;62.49;125687.94;4980557;28;20042;-82
2022/12/14 09:21:17;;;;;;;21.90;12.77;;;-2.30;99.90;;;-144.05;61.88;125687.94;4980769;28;20042;-84
2022/12/14 09:23:44;;;;;;;24.15;11.07;;;-2.30;99.90;;;-144.05;61.82;125687.94;4979588;28;20026;-82
2022/12/14 09:26:15;;;;;;;20.77;9.63;;;-2.30;99.90;;;-144.05;61.82;125687.94;4989348;28;20037;-82
2022/12/14 09:28:48;;;;;;;20.13;9.90;;;-2.30;99.90;;;-144.05;62.06;125687.94;4992618;28;20442;-83
2022/12/14 09:31:22;;;;;;;20.23;8.93;;;-2.30;99.90;;;-144.05;62.04;125687.94;4981178;28;20054;-82
2022/12/14 09:33:49;;;;;;;22.38;9.63;;;-2.30;99.90;;;-144.05;61.74;125687.94;4977628;28;20030;-84
2022/12/14 09:36:23;;;;;;;16.65;8.23;;;-2.30;99.90;;;-144.05;61.85;125687.94;4977599;28;20165;-84
2022/12/14 09:38:50;;;;;;;16.30;8.60;;;-2.30;99.90;;;-144.05;61.86;125687.94;4977313;28;20030;-82
2022/12/14 09:42:02;;;;;;;22.45;9.45;;;-2.20;99.90;;;-144.05;61.24;125687.94;4979375;28;20117;-82
2022/12/14 09:44:52;;;;;;;15.95;7.80;;;-2.20;99.90;;;-144.05;60.99;125687.94;4899881;29;20035;-82
2022/12/14 09:47:30;;;;;;;21.33;9.57;;;-2.20;99.90;;;-144.05;61.21;125687.94;4980508;28;20046;-83
2022/12/14 09:50:19;;;;;;;15.32;7.72;;;-2.10;99.90;;;-144.05;61.28;125687.94;4978308;28;20040;-82
2022/12/14 09:53:00;;;;;;;20.85;8.75;;;-2.10;99.90;;;-144.05;60.95;125687.94;4995586;28;20044;-83
2022/12/14 09:55:49;;;;;;;21.88;9.65;;;-2.10;99.90;;;-144.05;60.82;125687.94;4980712;28;20096;-83
2022/12/14 09:58:31;;;;;;;21.92;8.82;;;-2.10;99.90;;;-144.05;61.00;125687.94;4976994;28;20204;-83
2022/12/14 10:01:21;;;;;;;16.88;7.90;;;-2.10;99.90;;;-144.05;60.61;125687.94;4976796;28;20042;-82
2022/12/14 10:04:29;;;;;;;22.45;8.77;;;-2.10;99.90;;;-144.05;61.04;125687.94;4993412;28;20038;-82
2022/12/14 10:07:34;;;;;;;23.13;9.85;;;-2.10;99.90;;;-144.05;60.85;125687.94;4977760;28;20117;-82
2022/12/14 10:10:27;;;;;;;18.77;8.48;;;-2.10;99.90;;;-144.05;60.86;125687.94;4977929;28;20034;-83
2022/12/14 10:13:33;;;;;;;24.40;8.80;;;-2.10;99.90;;;-144.05;61.09;125687.94;4978838;28;20113;-81
2022/12/14 10:17:07;;;;;;;20.63;9.38;;;-2.10;99.90;;;-144.05;60.99;125687.94;4979535;28;20518;-82
2022/12/14 10:19:51;;;;;;;24.73;8.98;;;-2.10;99.90;;;-144.05;61.09;125687.94;4965552;28;20101;-83
2022/12/14 10:22:31;;;;;;;20.60;9.35;;;-2.10;99.90;;;-144.05;60.99;125687.94;4981341;28;20185;-82
2022/12/14 10:25:17;;;;;;;21.63;9.15;;;-2.10;99.90;;;-144.05;61.18;125687.94;4978174;28;20058;-82
2022/12/14 10:27:59;;;;;;;19.48;9.13;;;-2.00;99.90;;;-144.05;61.06;125687.94;4980573;28;20027;-82
2022/12/14 10:30:25;;;;;;;18.63;8.75;;;-1.90;99.90;;;-144.05;61.07;125687.94;4999382;28;20050;-83
2022/12/14 10:33:25;;;;;;;21.95;9.38;;;-1.90;99.90;;;-144.05;61.13;125687.94;4978428;28;20121;-83
2022/12/14 10:36:17;;;;;;;24.90;9.45;;;-1.90;99.90;;;-144.05;61.06;125687.94;4986877;28;20052;-82
2022/12/14 10:39:18;;;;;;;21.02;11.32;;;-1.90;99.90;;;-144.05;61.28;125687.94;4979286;28;20060;-82
2022/12/14 10:42:41;;;;;;;21.08;8.35;;;-1.80;99.90;;;-144.05;61.25;125687.94;4978183;28;20073;-83
2022/12/14 10:45:28;;;;;;;25.67;9.48;;;-1.70;99.90;;;-144.05;60.99;125687.94;4919461;29;20032;-83
2022/12/14 10:48:13;;;;;;;20.95;10.68;;;-1.60;99.90;;;-144.05;60.86;125687.94;4980265;28;20113;-81
2022/12/14 10:51:06;;;;;;;20.95;10.02;;;-1.50;99.90;;;-144.05;60.43;125687.94;4978656;28;20031;-81